sensor_id;sensor_type;location;lat;lon;timestamp;pressure;altitude;pressure_sealevel;temperature;humidity
39449;BME280;25151;45.566;9.382;2023-01-31T00:01:52;99980.09;;;20.06;50.39
39449;BME280;25151;45.566;9.382;2023-01-31T00:04:53;99973.47;;;20.00;50.04
39449;BME280;25151;45.566;9.382;2023-01-31T00:07:54;99987.91;;;19.99;50.18
39449;BME280;25151;45.566;9.382;2023-01-31T00:10:57;99999.88;;;19.99;50.40
39449;BME280;25151;45.566;9.382;2023-01-31T00:13:59;100013.19;;;19.95;50.49
39449;BME280;25151;45.566;9.382;2023-01-31T00:17:00;100007.25;;;19.93;50.43
39449;BME280;25151;45.566;9.382;2023-01-31T00:20:00;100010.59;;;19.88;50.34
39449;BME280;25151;45.566;9.382;2023-01-31T00:23:01;100008.13;;;19.90;50.34
39449;BME280;25151;45.566;9.382;2023-01-31T00:26:27;100028.16;;;19.88;50.68
39449;BME280;25151;45.566;9.382;2023-01-31T00:29:29;100020.28;;;19.83;50.51
39449;BME280;25151;45.566;9.382;2023-01-31T00:32:30;100027.81;;;19.86;50.46
39449;BME280;25151;45.566;9.382;2023-01-31T00:35:31;100034.72;;;19.82;50.65
39449;BME280;25151;45.566;9.382;2023-01-31T00:38:32;100029.91;;;19.82;50.47
39449;BME280;25151;45.566;9.382;2023-01-31T00:41:35;100046.38;;;19.80;50.53
39449;BME280;25151;45.566;9.382;2023-01-31T00:44:36;100049.25;;;19.77;50.62
39449;BME280;25151;45.566;9.382;2023-01-31T00:47:36;100034.81;;;19.78;50.36
39449;BME280;25151;45.566;9.382;2023-01-31T00:50:37;100046.09;;;19.75;50.57
39449;BME280;25151;45.566;9.382;2023-01-31T00:53:38;100077.31;;;19.73;50.46
39449;BME280;25151;45.566;9.382;2023-01-31T00:56:39;100072.06;;;19.75;50.56
39449;BME280;25151;45.566;9.382;2023-01-31T00:59:40;100070.94;;;19.73;50.57
39449;BME280;25151;45.566;9.382;2023-01-31T01:02:41;100099.00;;;19.69;50.68
39449;BME280;25151;45.566;9.382;2023-01-31T01:05:41;100089.81;;;19.69;50.52
39449;BME280;25151;45.566;9.382;2023-01-31T01:08:43;100094.25;;;19.66;50.74
39449;BME280;25151;45.566;9.382;2023-01-31T01:11:44;100100.66;;;19.67;50.62
39449;BME280;25151;45.566;9.382;2023-01-31T01:14:45;100094.25;;;19.66;51.06
39449;BME280;25151;45.566;9.382;2023-01-31T01:17:45;100103.09;;;19.64;50.67
39449;BME280;25151;45.566;9.382;2023-01-31T01:20:46;100114.72;;;19.63;50.67
39449;BME280;25151;45.566;9.382;2023-01-31T01:23:47;100107.97;;;19.60;50.74
39449;BME280;25151;45.566;9.382;2023-01-31T01:26:48;100127.91;;;19.62;51.00
39449;BME280;25151;45.566;9.382;2023-01-31T01:29:49;100124.38;;;19.58;50.63
39449;BME280;25151;45.566;9.382;2023-01-31T01:32:49;100130.34;;;19.60;50.58
39449;BME280;25151;45.566;9.382;2023-01-31T01:35:50;100134.78;;;19.58;50.81
39449;BME280;25151;45.566;9.382;2023-01-31T01:38:51;100138.44;;;19.55;50.74
39449;BME280;25151;45.566;9.382;2023-01-31T01:41:52;100148.00;;;19.57;50.40
39449;BME280;25151;45.566;9.382;2023-01-31T01:44:58;100137.66;;;19.54;50.98
39449;BME280;25151;45.566;9.382;2023-01-31T01:48:04;100132.84;;;19.55;50.68
39449;BME280;25151;45.566;9.382;2023-01-31T01:51:06;100145.34;;;19.50;50.54
39449;BME280;25151;45.566;9.382;2023-01-31T01:54:11;100164.94;;;19.50;50.90
39449;BME280;25151;45.566;9.382;2023-01-31T01:57:16;100165.38;;;19.49;50.84
39449;BME280;25151;45.566;9.382;2023-01-31T02:00:22;100172.97;;;19.48;50.91
39449;BME280;25151;45.566;9.382;2023-01-31T02:03:23;100165.78;;;19.47;50.80
39449;BME280;25151;45.566;9.382;2023-01-31T02:06:23;100176.97;;;19.47;50.86
39449;BME280;25151;45.566;9.382;2023-01-31T02:12:34;100174.63;;;19.46;50.80
39449;BME280;25151;45.566;9.382;2023-01-31T02:15:36;100180.66;;;19.44;50.84
39449;BME280;25151;45.566;9.382;2023-01-31T02:18:36;100177.88;;;19.44;50.81
39449;BME280;25151;45.566;9.382;2023-01-31T02:22:03;100187.44;;;19.43;50.97
39449;BME280;25151;45.566;9.382;2023-01-31T02:25:23;100187.44;;;19.43;50.84
39449;BME280;25151;45.566;9.382;2023-01-31T02:28:51;100188.69;;;19.42;50.73
39449;BME280;25151;45.566;9.382;2023-01-31T02:35:51;100178.78;;;19.37;50.92
39449;BME280;25151;45.566;9.382;2023-01-31T02:42:19;100202.75;;;19.38;50.88
39449;BME280;25151;45.566;9.382;2023-01-31T02:52:58;100212.44;;;19.34;50.87
39449;BME280;25151;45.566;9.382;2023-01-31T02:56:10;100222.81;;;19.33;51.01
39449;BME280;25151;45.566;9.382;2023-01-31T02:59:21;100221.25;;;19.32;50.68
39449;BME280;25151;45.566;9.382;2023-01-31T03:02:26;100206.13;;;19.30;51.04
39449;BME280;25151;45.566;9.382;2023-01-31T03:05:27;100210.50;;;19.31;50.85
39449;BME280;25151;45.566;9.382;2023-01-31T03:08:29;100210.16;;;19.29;51.15
39449;BME280;25151;45.566;9.382;2023-01-31T03:15:17;100225.75;;;19.26;51.06
39449;BME280;25151;45.566;9.382;2023-01-31T03:18:29;100213.00;;;19.25;51.01
39449;BME280;25151;45.566;9.382;2023-01-31T03:21:38;100222.97;;;19.26;51.16
39449;BME280;25151;45.566;9.382;2023-01-31T03:24:40;100215.81;;;19.25;50.93
39449;BME280;25151;45.566;9.382;2023-01-31T03:27:44;100215.03;;;19.25;51.01
39449;BME280;25151;45.566;9.382;2023-01-31T03:30:51;100220.25;;;19.23;50.96
39449;BME280;25151;45.566;9.382;2023-01-31T03:33:59;100223.81;;;19.23;50.87
39449;BME280;25151;45.566;9.382;2023-01-31T03:41:09;100225.03;;;19.22;50.99
39449;BME280;25151;45.566;9.382;2023-01-31T03:44:23;100232.66;;;19.22;51.01
39449;BME280;25151;45.566;9.382;2023-01-31T03:47:37;100232.72;;;19.18;50.88
39449;BME280;25151;45.566;9.382;2023-01-31T03:51:03;100231.16;;;19.17;50.85
39449;BME280;25151;45.566;9.382;2023-01-31T03:54:10;100225.97;;;19.15;51.05
39449;BME280;25151;45.566;9.382;2023-01-31T03:57:21;100235.94;;;19.16;51.15
39449;BME280;25151;45.566;9.382;2023-01-31T04:00:24;100234.78;;;19.14;51.02
39449;BME280;25151;45.566;9.382;2023-01-31T04:03:37;100238.38;;;19.14;50.93
39449;BME280;25151;45.566;9.382;2023-01-31T04:06:39;100244.75;;;19.15;51.12
39449;BME280;25151;45.566;9.382;2023-01-31T04:09:40;100252.00;;;19.12;51.07
39449;BME280;25151;45.566;9.382;2023-01-31T04:12:40;100262.75;;;19.14;51.04
39449;BME280;25151;45.566;9.382;2023-01-31T04:15:41;100260.03;;;19.10;50.92
39449;BME280;25151;45.566;9.382;2023-01-31T04:18:42;100254.44;;;19.10;50.91
39449;BME280;25151;45.566;9.382;2023-01-31T04:21:43;100261.59;;;19.11;51.09
39449;BME280;25151;45.566;9.382;2023-01-31T04:24:44;100271.19;;;19.10;50.91
39449;BME280;25151;45.566;9.382;2023-01-31T04:27:44;100272.44;;;19.09;51.06
39449;BME280;25151;45.566;9.382;2023-01-31T04:30:45;100267.25;;;19.08;50.90
39449;BME280;25151;45.566;9.382;2023-01-31T04:33:45;100258.50;;;19.06;51.06
39449;BME280;25151;45.566;9.382;2023-01-31T04:36:46;100260.88;;;19.07;50.86
39449;BME280;25151;45.566;9.382;2023-01-31T04:39:46;100253.72;;;19.06;51.11
39449;BME280;25151;45.566;9.382;2023-01-31T04:42:49;100259.31;;;19.06;51.07
39449;BME280;25151;45.566;9.382;2023-01-31T04:45:49;100262.09;;;19.06;50.97
39449;BME280;25151;45.566;9.382;2023-01-31T04:48:50;100254.56;;;19.03;51.04
39449;BME280;25151;45.566;9.382;2023-01-31T04:51:51;100245.38;;;19.03;51.14
39449;BME280;25151;45.566;9.382;2023-01-31T04:54:52;100249.75;;;19.04;51.01
39449;BME280;25151;45.566;9.382;2023-01-31T04:57:52;100248.97;;;19.03;51.20
39449;BME280;25151;45.566;9.382;2023-01-31T05:00:53;100254.22;;;19.01;51.00
39449;BME280;25151;45.566;9.382;2023-01-31T05:03:54;100251.03;;;18.99;50.89
39449;BME280;25151;45.566;9.382;2023-01-31T05:06:54;100254.63;;;19.00;51.00
39449;BME280;25151;45.566;9.382;2023-01-31T05:09:55;100263.78;;;19.00;51.17
39449;BME280;25151;45.566;9.382;2023-01-31T05:12:56;100248.25;;;18.99;51.07
39449;BME280;25151;45.566;9.382;2023-01-31T05:15:56;100266.59;;;19.00;51.16
39449;BME280;25151;45.566;9.382;2023-01-31T05:18:57;100265.88;;;18.96;51.09
39449;BME280;25151;45.566;9.382;2023-01-31T05:21:57;100263.50;;;18.95;51.13
39449;BME280;25151;45.566;9.382;2023-01-31T05:24:58;100281.44;;;18.97;51.11
39449;BME280;25151;45.566;9.382;2023-01-31T05:27:58;100284.22;;;18.97;51.08
39449;BME280;25151;45.566;9.382;2023-01-31T05:31:05;100281.84;;;18.96;51.21
39449;BME280;25151;45.566;9.382;2023-01-31T05:34:07;100281.91;;;18.92;51.04
39449;BME280;25151;45.566;9.382;2023-01-31T05:37:09;100280.72;;;18.93;51.38
39449;BME280;25151;45.566;9.382;2023-01-31T05:40:11;100283.91;;;18.91;51.11
39449;BME280;25151;45.566;9.382;2023-01-31T05:43:12;100293.09;;;18.92;51.18
39449;BME280;25151;45.566;9.382;2023-01-31T05:46:13;100305.88;;;18.93;51.03
39449;BME280;25151;45.566;9.382;2023-01-31T05:49:14;100306.66;;;18.94;51.20
39449;BME280;25151;45.566;9.382;2023-01-31T05:52:14;100298.69;;;18.92;50.94
39449;BME280;25151;45.566;9.382;2023-01-31T05:55:15;100313.88;;;18.91;51.07
39449;BME280;25151;45.566;9.382;2023-01-31T05:58:15;100320.69;;;18.90;50.78
39449;BME280;25151;45.566;9.382;2023-01-31T06:01:20;100299.16;;;18.87;51.16
39449;BME280;25151;45.566;9.382;2023-01-31T06:04:21;100312.72;;;18.88;51.08
39449;BME280;25151;45.566;9.382;2023-01-31T06:07:21;100309.13;;;18.88;51.11
39449;BME280;25151;45.566;9.382;2023-01-31T06:10:23;100317.09;;;18.89;51.08
39449;BME280;25151;45.566;9.382;2023-01-31T06:13:23;100315.50;;;18.88;50.99
39449;BME280;25151;45.566;9.382;2023-01-31T06:16:24;100325.94;;;18.84;51.09
39449;BME280;25151;45.566;9.382;2023-01-31T06:19:24;100321.97;;;18.85;51.01
39449;BME280;25151;45.566;9.382;2023-01-31T06:22:25;100319.97;;;18.86;50.95
39449;BME280;25151;45.566;9.382;2023-01-31T06:25:26;100337.94;;;18.85;51.02
39449;BME280;25151;45.566;9.382;2023-01-31T06:28:27;100332.34;;;18.85;50.94
39449;BME280;25151;45.566;9.382;2023-01-31T06:31:28;100329.19;;;18.83;51.16
39449;BME280;25151;45.566;9.382;2023-01-31T06:34:29;100328.84;;;18.81;51.12
39449;BME280;25151;45.566;9.382;2023-01-31T06:37:29;100328.84;;;18.81;51.03
39449;BME280;25151;45.566;9.382;2023-01-31T06:40:30;100331.19;;;18.82;51.28
39449;BME280;25151;45.566;9.382;2023-01-31T06:43:31;100337.13;;;18.84;50.90
39449;BME280;25151;45.566;9.382;2023-01-31T06:46:31;100347.13;;;18.85;51.11
39449;BME280;25151;45.566;9.382;2023-01-31T06:49:32;100345.50;;;18.84;51.07
39449;BME280;25151;45.566;9.382;2023-01-31T06:52:33;100347.91;;;18.86;50.75
39449;BME280;25151;45.566;9.382;2023-01-31T06:55:33;100351.38;;;18.94;50.85
39449;BME280;25151;45.566;9.382;2023-01-31T06:58:34;100346.91;;;18.96;51.03
39449;BME280;25151;45.566;9.382;2023-01-31T07:01:34;100356.03;;;19.00;50.82
39449;BME280;25151;45.566;9.382;2023-01-31T07:04:35;100347.56;;;19.04;50.73
39449;BME280;25151;45.566;9.382;2023-01-31T07:07:36;100347.53;;;19.07;50.83
39449;BME280;25151;45.566;9.382;2023-01-31T07:10:36;100356.56;;;19.15;50.72
39449;BME280;25151;45.566;9.382;2023-01-31T07:13:38;100354.94;;;19.17;50.73
39449;BME280;25151;45.566;9.382;2023-01-31T07:16:39;100366.00;;;19.25;50.74
39449;BME280;25151;45.566;9.382;2023-01-31T07:19:40;100363.06;;;19.32;50.52
39449;BME280;25151;45.566;9.382;2023-01-31T07:22:41;100369.75;;;19.38;50.69
39449;BME280;25151;45.566;9.382;2023-01-31T07:25:41;100370.03;;;19.44;50.59
39449;BME280;25151;45.566;9.382;2023-01-31T07:28:42;100373.91;;;19.50;50.61
39449;BME280;25151;45.566;9.382;2023-01-31T07:31:42;100367.03;;;19.54;50.44
39449;BME280;25151;45.566;9.382;2023-01-31T07:34:43;100365.34;;;19.60;50.27
39449;BME280;25151;45.566;9.382;2023-01-31T07:37:44;100373.97;;;19.70;50.32
39449;BME280;25151;45.566;9.382;2023-01-31T07:40:45;100377.09;;;19.72;50.19
39449;BME280;25151;45.566;9.382;2023-01-31T07:43:46;100384.97;;;19.80;50.30
39449;BME280;25151;45.566;9.382;2023-01-31T07:46:46;100395.19;;;19.87;50.03
39449;BME280;25151;45.566;9.382;2023-01-31T07:49:47;100398.38;;;19.89;50.30
39449;BME280;25151;45.566;9.382;2023-01-31T07:52:50;100399.88;;;19.94;49.94
39449;BME280;25151;45.566;9.382;2023-01-31T07:55:50;100399.03;;;19.97;50.16
39449;BME280;25151;45.566;9.382;2023-01-31T07:58:51;100401.31;;;20.02;49.93
39449;BME280;25151;45.566;9.382;2023-01-31T08:01:51;100402.47;;;20.04;49.90
39449;BME280;25151;45.566;9.382;2023-01-31T08:05:11;100411.56;;;20.08;49.89
39449;BME280;25151;45.566;9.382;2023-01-31T08:08:11;100412.34;;;20.09;49.83
39449;BME280;25151;45.566;9.382;2023-01-31T08:11:12;100418.69;;;20.13;49.62
39449;BME280;25151;45.566;9.382;2023-01-31T08:14:13;100416.31;;;20.11;49.84
39449;BME280;25151;45.566;9.382;2023-01-31T08:17:14;100422.25;;;20.13;49.74
39449;BME280;25151;45.566;9.382;2023-01-31T08:20:14;100419.47;;;20.13;49.86
39449;BME280;25151;45.566;9.382;2023-01-31T08:23:15;100420.25;;;20.14;49.58
39449;BME280;25151;45.566;9.382;2023-01-31T08:26:18;100439.50;;;20.12;49.87
39449;BME280;25151;45.566;9.382;2023-01-31T08:29:19;100439.56;;;20.08;49.92
39449;BME280;25151;45.566;9.382;2023-01-31T08:32:20;100445.16;;;20.08;49.90
39449;BME280;25151;45.566;9.382;2023-01-31T08:35:20;100447.53;;;20.10;49.73
39449;BME280;25151;45.566;9.382;2023-01-31T08:38:21;100449.97;;;20.08;49.89
39449;BME280;25151;45.566;9.382;2023-01-31T08:41:24;100453.13;;;20.10;49.52
39449;BME280;25151;45.566;9.382;2023-01-31T08:44:25;100452.72;;;20.11;49.85
39449;BME280;25151;45.566;9.382;2023-01-31T08:47:26;100456.22;;;20.16;49.71
39449;BME280;25151;45.566;9.382;2023-01-31T08:50:31;100460.94;;;20.19;49.65
39449;BME280;25151;45.566;9.382;2023-01-31T08:53:32;100462.63;;;20.16;49.69
39449;BME280;25151;45.566;9.382;2023-01-31T08:56:33;100464.19;;;20.17;49.88
39449;BME280;25151;45.566;9.382;2023-01-31T08:59:34;100466.06;;;20.24;49.48
39449;BME280;25151;45.566;9.382;2023-01-31T09:02:34;100468.88;;;20.24;49.76
39449;BME280;25151;45.566;9.382;2023-01-31T09:05:35;100456.78;;;20.27;49.59
39449;BME280;25151;45.566;9.382;2023-01-31T09:08:35;100468.69;;;20.31;49.72
39449;BME280;25151;45.566;9.382;2023-01-31T09:11:36;100473.03;;;20.35;49.69
39449;BME280;25151;45.566;9.382;2023-01-31T09:14:37;100466.97;;;20.37;49.69
39449;BME280;25151;45.566;9.382;2023-01-31T09:17:40;100468.63;;;20.34;49.40
39449;BME280;25151;45.566;9.382;2023-01-31T09:20:42;100473.44;;;20.34;49.67
39449;BME280;25151;45.566;9.382;2023-01-31T09:23:43;100466.97;;;20.37;49.62
39449;BME280;25151;45.566;9.382;2023-01-31T09:26:43;100475.72;;;20.39;49.58
39449;BME280;25151;45.566;9.382;2023-01-31T09:29:44;100480.53;;;20.38;49.50
39449;BME280;25151;45.566;9.382;2023-01-31T09:32:45;100473.28;;;20.41;49.37
39449;BME280;25151;45.566;9.382;2023-01-31T09:35:57;100464.91;;;20.41;49.59
39449;BME280;25151;45.566;9.382;2023-01-31T09:38:58;100467.25;;;20.43;49.62
39449;BME280;25151;45.566;9.382;2023-01-31T09:42:25;100474.00;;;20.45;49.53
39449;BME280;25151;45.566;9.382;2023-01-31T09:45:34;100466.47;;;20.42;49.42
39449;BME280;25151;45.566;9.382;2023-01-31T09:48:37;100475.25;;;20.44;49.40
39449;BME280;25151;45.566;9.382;2023-01-31T09:51:39;100474.00;;;20.45;49.37
39449;BME280;25151;45.566;9.382;2023-01-31T09:54:40;100462.81;;;20.45;49.55
39449;BME280;25151;45.566;9.382;2023-01-31T10:04:55;100483.16;;;20.49;49.24
39449;BME280;25151;45.566;9.382;2023-01-31T10:14:46;100495.53;;;20.52;49.25
39449;BME280;25151;45.566;9.382;2023-01-31T10:17:53;100492.97;;;20.57;49.05
39449;BME280;25151;45.566;9.382;2023-01-31T10:27:20;100483.91;;;20.70;49.17
39449;BME280;25151;45.566;9.382;2023-01-31T10:30:27;100483.03;;;20.73;48.97
39449;BME280;25151;45.566;9.382;2023-01-31T10:38:04;100475.28;;;20.80;48.80
39449;BME280;25151;45.566;9.382;2023-01-31T10:45:12;100468.34;;;20.85;48.92
39449;BME280;25151;45.566;9.382;2023-01-31T10:48:17;100472.38;;;20.84;48.81
39449;BME280;25151;45.566;9.382;2023-01-31T10:51:43;100463.44;;;20.89;48.98
39449;BME280;25151;45.566;9.382;2023-01-31T10:57:54;100451.81;;;20.91;48.85
39449;BME280;25151;45.566;9.382;2023-01-31T11:00:56;100439.47;;;20.88;48.97
39449;BME280;25151;45.566;9.382;2023-01-31T11:03:59;100445.41;;;20.90;48.93
39449;BME280;25151;45.566;9.382;2023-01-31T11:07:01;100443.41;;;20.91;48.96
39449;BME280;25151;45.566;9.382;2023-01-31T11:10:23;100426.47;;;20.94;49.02
39449;BME280;25151;45.566;9.382;2023-01-31T11:13:24;100423.34;;;20.92;48.92
39449;BME280;25151;45.566;9.382;2023-01-31T11:16:27;100424.38;;;20.98;48.85
39449;BME280;25151;45.566;9.382;2023-01-31T11:19:34;100423.50;;;21.01;49.18
39449;BME280;25151;45.566;9.382;2023-01-31T11:22:36;100422.56;;;21.08;48.88
39449;BME280;25151;45.566;9.382;2023-01-31T11:25:37;100418.88;;;21.11;48.92
39449;BME280;25151;45.566;9.382;2023-01-31T11:28:39;100413.97;;;21.15;49.10
39449;BME280;25151;45.566;9.382;2023-01-31T11:31:42;100404.78;;;21.15;49.21
39449;BME280;25151;45.566;9.382;2023-01-31T11:38:16;100398.63;;;21.20;48.95
39449;BME280;25151;45.566;9.382;2023-01-31T11:41:27;100394.94;;;21.23;49.01
39449;BME280;25151;45.566;9.382;2023-01-31T11:44:28;100394.59;;;21.21;48.93
39449;BME280;25151;45.566;9.382;2023-01-31T11:51:00;100383.38;;;21.21;49.29
39449;BME280;25151;45.566;9.382;2023-01-31T11:54:03;100397.41;;;21.21;49.41
39449;BME280;25151;45.566;9.382;2023-01-31T11:57:16;100399.41;;;21.20;49.00
39449;BME280;25151;45.566;9.382;2023-01-31T12:00:26;100391.31;;;21.22;49.27
39449;BME280;25151;45.566;9.382;2023-01-31T12:03:28;100390.22;;;21.20;49.17
39449;BME280;25151;45.566;9.382;2023-01-31T12:09:42;100388.97;;;21.21;49.08
39449;BME280;25151;45.566;9.382;2023-01-31T12:12:43;100377.06;;;21.17;49.36
39449;BME280;25151;45.566;9.382;2023-01-31T12:15:47;100381.00;;;21.19;49.43
39449;BME280;25151;45.566;9.382;2023-01-31T12:22:18;100364.97;;;21.20;49.09
39449;BME280;25151;45.566;9.382;2023-01-31T12:28:52;100346.44;;;21.22;49.15
39449;BME280;25151;45.566;9.382;2023-01-31T12:52:04;100313.25;;;21.21;49.47
39449;BME280;25151;45.566;9.382;2023-01-31T12:55:30;100317.72;;;21.18;49.17
39449;BME280;25151;45.566;9.382;2023-01-31T13:05:10;100306.50;;;21.18;49.42
39449;BME280;25151;45.566;9.382;2023-01-31T13:08:23;100300.09;;;21.18;49.29
39449;BME280;25151;45.566;9.382;2023-01-31T13:11:30;100289.81;;;21.15;49.29
39449;BME280;25151;45.566;9.382;2023-01-31T13:14:39;100298.53;;;21.17;49.33
39449;BME280;25151;45.566;9.382;2023-01-31T13:17:42;100289.81;;;21.15;49.14
39449;BME280;25151;45.566;9.382;2023-01-31T13:20:57;100281.03;;;21.12;49.17
39449;BME280;25151;45.566;9.382;2023-01-31T13:24:12;100277.88;;;21.10;48.89
39449;BME280;25151;45.566;9.382;2023-01-31T13:27:26;100268.66;;;21.10;49.42
39449;BME280;25151;45.566;9.382;2023-01-31T13:30:42;100267.78;;;21.13;49.14
39449;BME280;25151;45.566;9.382;2023-01-31T13:36:59;100265.25;;;21.19;48.92
39449;BME280;25151;45.566;9.382;2023-01-31T13:40:27;100256.84;;;21.19;48.85
39449;BME280;25151;45.566;9.382;2023-01-31T13:43:29;100248.06;;;21.17;49.21
39449;BME280;25151;45.566;9.382;2023-01-31T13:49:44;100251.31;;;21.15;49.38
39449;BME280;25151;45.566;9.382;2023-01-31T13:52:48;100246.13;;;21.13;49.15
39449;BME280;25151;45.566;9.382;2023-01-31T13:55:51;100249.31;;;21.16;49.25
39449;BME280;25151;45.566;9.382;2023-01-31T13:58:54;100237.41;;;21.11;49.32
39449;BME280;25151;45.566;9.382;2023-01-31T14:02:00;100244.56;;;21.12;49.31
39449;BME280;25151;45.566;9.382;2023-01-31T14:05:48;100250.53;;;21.15;49.16
39449;BME280;25151;45.566;9.382;2023-01-31T14:08:56;100247.72;;;21.15;49.24
39449;BME280;25151;45.566;9.382;2023-01-31T14:12:44;100237.41;;;21.11;49.36
39449;BME280;25151;45.566;9.382;2023-01-31T14:15:46;100249.72;;;21.14;49.30
39449;BME280;25151;45.566;9.382;2023-01-31T14:18:47;100233.34;;;21.12;49.30
39449;BME280;25151;45.566;9.382;2023-01-31T14:22:03;100232.66;;;21.08;49.45
39449;BME280;25151;45.566;9.382;2023-01-31T14:25:13;100231.44;;;21.09;49.57
39449;BME280;25151;45.566;9.382;2023-01-31T14:28:15;100227.50;;;21.07;49.68
39449;BME280;25151;45.566;9.382;2023-01-31T14:31:18;100229.19;;;21.04;49.60
39449;BME280;25151;45.566;9.382;2023-01-31T14:34:24;100232.31;;;21.06;49.67
39449;BME280;25151;45.566;9.382;2023-01-31T14:38:29;100228.72;;;21.06;49.47
39449;BME280;25151;45.566;9.382;2023-01-31T14:41:54;100231.53;;;21.06;49.77
39449;BME280;25151;45.566;9.382;2023-01-31T14:54:47;100220.53;;;20.99;49.92
39449;BME280;25151;45.566;9.382;2023-01-31T14:57:54;100219.72;;;20.98;50.04
39449;BME280;25151;45.566;9.382;2023-01-31T15:00:59;100224.53;;;20.98;49.91
39449;BME280;25151;45.566;9.382;2023-01-31T15:04:03;100212.72;;;20.90;50.14
39449;BME280;25151;45.566;9.382;2023-01-31T15:07:04;100209.34;;;20.82;50.03
39449;BME280;25151;45.566;9.382;2023-01-31T15:16:46;100221.19;;;20.74;49.80
39449;BME280;25151;45.566;9.382;2023-01-31T15:23:22;100219.25;;;20.71;50.00
39449;BME280;25151;45.566;9.382;2023-01-31T15:26:30;100219.00;;;20.65;49.79
39449;BME280;25151;45.566;9.382;2023-01-31T15:32:51;100206.34;;;20.60;49.96
39449;BME280;25151;45.566;9.382;2023-01-31T15:36:08;100203.53;;;20.60;49.89
39449;BME280;25151;45.566;9.382;2023-01-31T15:39:24;100205.97;;;20.58;49.87
39449;BME280;25151;45.566;9.382;2023-01-31T15:42:28;100203.25;;;20.55;49.91
39449;BME280;25151;45.566;9.382;2023-01-31T15:45:29;100210.88;;;20.54;49.73
39449;BME280;25151;45.566;9.382;2023-01-31T15:48:30;100214.47;;;20.55;49.48
39449;BME280;25151;45.566;9.382;2023-01-31T15:51:30;100216.94;;;20.53;49.94
39449;BME280;25151;45.566;9.382;2023-01-31T15:54:31;100223.41;;;20.50;49.53
39449;BME280;25151;45.566;9.382;2023-01-31T15:57:38;100226.25;;;20.46;49.47
39449;BME280;25151;45.566;9.382;2023-01-31T16:00:40;100231.88;;;20.46;49.91
39449;BME280;25151;45.566;9.382;2023-01-31T16:04:09;100237.06;;;20.48;49.69
39449;BME280;25151;45.566;9.382;2023-01-31T16:07:36;100229.06;;;20.46;49.97
39449;BME280;25151;45.566;9.382;2023-01-31T16:10:36;100232.41;;;20.41;49.89
39449;BME280;25151;45.566;9.382;2023-01-31T16:13:40;100227.59;;;20.42;49.67
39449;BME280;25151;45.566;9.382;2023-01-31T16:16:45;100232.84;;;20.39;49.71
39449;BME280;25151;45.566;9.382;2023-01-31T16:19:48;100232.03;;;20.39;49.72
39449;BME280;25151;45.566;9.382;2023-01-31T16:22:55;100226.09;;;20.37;49.80
39449;BME280;25151;45.566;9.382;2023-01-31T16:26:12;100229.34;;;20.35;49.82
39449;BME280;25151;45.566;9.382;2023-01-31T16:29:17;100216.22;;;20.32;49.80
39449;BME280;25151;45.566;9.382;2023-01-31T16:35:28;100234.69;;;20.30;49.89
39449;BME280;25151;45.566;9.382;2023-01-31T16:38:29;100249.13;;;20.28;49.98
39449;BME280;25151;45.566;9.382;2023-01-31T16:44:46;100251.16;;;20.28;49.89
39449;BME280;25151;45.566;9.382;2023-01-31T16:47:47;100257.63;;;20.25;50.01
39449;BME280;25151;45.566;9.382;2023-01-31T16:50:52;100260.03;;;20.23;49.98
39449;BME280;25151;45.566;9.382;2023-01-31T16:54:19;100252.78;;;20.25;49.92
39449;BME280;25151;45.566;9.382;2023-01-31T17:00:34;100240.09;;;20.21;50.04
39449;BME280;25151;45.566;9.382;2023-01-31T17:03:35;100246.94;;;20.20;50.16
39449;BME280;25151;45.566;9.382;2023-01-31T17:06:37;100264.94;;;20.19;50.01
39449;BME280;25151;45.566;9.382;2023-01-31T17:09:38;100271.06;;;20.13;50.29
39449;BME280;25151;45.566;9.382;2023-01-31T17:12:39;100285.44;;;20.16;49.93
39449;BME280;25151;45.566;9.382;2023-01-31T17:15:40;100278.31;;;20.11;50.12
39449;BME280;25151;45.566;9.382;2023-01-31T17:18:41;100269.56;;;20.09;50.25
39449;BME280;25151;45.566;9.382;2023-01-31T17:21:42;100260.41;;;20.08;50.33
39449;BME280;25151;45.566;9.382;2023-01-31T17:24:43;100261.59;;;20.07;50.26
39449;BME280;25151;45.566;9.382;2023-01-31T17:27:46;100261.97;;;20.09;50.27
39449;BME280;25151;45.566;9.382;2023-01-31T17:30:47;100273.69;;;20.04;50.31
39449;BME280;25151;45.566;9.382;2023-01-31T17:33:49;100278.06;;;20.05;50.56
39449;BME280;25151;45.566;9.382;2023-01-31T17:36:50;100282.44;;;20.06;50.34
39449;BME280;25151;45.566;9.382;2023-01-31T17:39:50;100279.69;;;20.03;50.35
39449;BME280;25151;45.566;9.382;2023-01-31T17:42:54;100285.75;;;20.01;50.49
39449;BME280;25151;45.566;9.382;2023-01-31T17:45:56;100281.72;;;20.02;50.21
39449;BME280;25151;45.566;9.382;2023-01-31T17:48:57;100274.09;;;20.03;50.35
39449;BME280;25151;45.566;9.382;2023-01-31T17:51:58;100264.13;;;20.02;50.68
39449;BME280;25151;45.566;9.382;2023-01-31T17:54:58;100260.56;;;20.01;50.52
39449;BME280;25151;45.566;9.382;2023-01-31T17:57:59;100261.41;;;19.98;50.64
39449;BME280;25151;45.566;9.382;2023-01-31T18:00:59;100266.94;;;20.02;50.68
39449;BME280;25151;45.566;9.382;2023-01-31T18:04:02;100266.16;;;20.01;50.59
39449;BME280;25151;45.566;9.382;2023-01-31T18:07:02;100268.59;;;19.99;50.82
39449;BME280;25151;45.566;9.382;2023-01-31T18:10:04;100268.16;;;20.01;50.79
39449;BME280;25151;45.566;9.382;2023-01-31T18:13:05;100251.09;;;19.95;50.96
39449;BME280;25151;45.566;9.382;2023-01-31T18:16:12;100254.25;;;19.97;50.88
39449;BME280;25151;45.566;9.382;2023-01-31T18:19:15;100247.09;;;19.96;51.02
39449;BME280;25151;45.566;9.382;2023-01-31T18:22:16;100240.69;;;19.96;50.85
39449;BME280;25151;45.566;9.382;2023-01-31T18:25:16;100236.31;;;19.95;50.99